Time;durP1;ratioP1;P1;durP2;ratioP2;P2;SDS_P1;SDS_P2;PMS_P1;PMS_P2;Temp;Humidity;BMP_temperature;BMP_pressure;BME280_temperature;BME280_humidity;BME280_pressure;Samples;Min_cycle;Max_cycle;Signal;HPM_P1;HPM_P2
2023/06/28 00:01:11;;;;;;;;;;;;;;;;;;5033640;28;20089;-63
2023/06/28 00:03:37;;;;;;;;;;;;;;;;;;5034131;28;19956;-64
2023/06/28 00:06:03;;;;;;;;;;;;;;;;;;5033539;28;19954;-63
2023/06/28 00:08:28;;;;;;;;;;;;;;;;;;5033484;28;20024;-62
2023/06/28 00:10:55;;;;;;;;;;;;;;;;;;5033767;28;19998;-65
2023/06/28 00:13:21;;;;;;;;;;;;;;;;;;5033517;28;20474;-65
2023/06/28 00:15:48;;;;;;;;;;;;;;;;;;5033465;28;19987;-66
2023/06/28 00:18:14;;;;;;;;;;;;;;;;;;5033354;28;19957;-68
2023/06/28 00:20:43;;;;;;;;;;;;;;;;;;5033727;28;20005;-65
2023/06/28 00:23:09;;;;;;;;;;;;;;;;;;5033397;28;19957;-65
2023/06/28 00:25:35;;;;;;;;;;;;;;;;;;5033829;28;20424;-65
2023/06/28 00:28:01;;;;;;;;;;;;;;;;;;5033249;28;19959;-64
2023/06/28 00:30:26;;;;;;;;;;;;;;;;;;5033870;28;19973;-66
2023/06/28 00:32:52;;;;;;;;;;;;;;;;;;5033573;28;20357;-65
2023/06/28 00:35:18;;;;;;;;;;;;;;;;;;5033744;28;19967;-64
2023/06/28 00:37:44;;;;;;;;;;;;;;;;;;5033286;28;19951;-65
2023/06/28 00:40:10;;;;;;;;;;;;;;;;;;5033259;28;20369;-64
2023/06/28 00:42:36;;;;;;;;;;;;;;;;;;5033026;28;20020;-66
2023/06/28 00:45:02;;;;;;;;;;;;;;;;;;5033471;28;19932;-63
2023/06/28 00:47:28;;;;;;;;;;;;;;;;;;5033512;28;19954;-65
2023/06/28 00:49:54;;;;;;;;;;;;;;;;;;5033113;28;20014;-62
2023/06/28 00:52:19;;;;;;;;;;;;;;;;;;5033409;28;19941;-63
2023/06/28 00:54:45;;;;;;;;;;;;;;;;;;5033135;28;20056;-61
2023/06/28 00:57:11;;;;;;;;;;;;;;;;;;5033693;28;19947;-67
2023/06/28 00:59:38;;;;;;;;;;;;;;;;;;5036143;28;19941;-66
2023/06/28 01:02:04;;;;;;;;;;;;;;;;;;5035163;28;19954;-63
2023/06/28 01:04:30;;;;;;;;;;;;;;;;;;5036545;28;20048;-66
2023/06/28 01:06:59;;;;;;;;;;;;;;;;;;5036554;28;19987;-67
2023/06/28 01:09:25;;;;;;;;;;;;;;;;;;5036747;28;20320;-67
2023/06/28 01:11:51;;;;;;;;;;;;;;;;;;5036486;28;19950;-62
2023/06/28 01:14:17;;;;;;;;;;;;;;;;;;5036650;28;19997;-62
2023/06/28 01:16:43;;;;;;;;;;;;;;;;;;5036637;28;20038;-66
2023/06/28 01:19:08;;;;;;;;;;;;;;;;;;5036261;28;19960;-67
2023/06/28 01:21:34;;;;;;;;;;;;;;;;;;5036820;28;19974;-64
2023/06/28 01:24:00;;;;;;;;;;;;;;;;;;5036238;28;19941;-66
2023/06/28 01:26:26;;;;;;;;;;;;;;;;;;5036918;28;19952;-65
2023/06/28 01:28:52;;;;;;;;;;;;;;;;;;5036601;28;19966;-67
2023/06/28 01:31:18;;;;;;;;;;;;;;;;;;5036397;28;19981;-64
2023/06/28 01:33:46;;;;;;;;;;;;;;;;;;5036296;28;20396;-65
2023/06/28 01:36:12;;;;;;;;;;;;;;;;;;5036288;28;19947;-66
2023/06/28 01:38:38;;;;;;;;;;;;;;;;;;5035959;28;19932;-68
2023/06/28 01:41:04;;;;;;;;;;;;;;;;;;5036503;28;20281;-66
2023/06/28 01:43:30;;;;;;;;;;;;;;;;;;5035816;28;19977;-68
2023/06/28 01:45:55;;;;;;;;;;;;;;;;;;5035963;28;20090;-69
2023/06/28 01:48:21;;;;;;;;;;;;;;;;;;5036060;28;19949;-66
2023/06/28 01:50:47;;;;;;;;;;;;;;;;;;5035785;28;20025;-65
2023/06/28 01:53:13;;;;;;;;;;;;;;;;;;5036003;28;19926;-69
2023/06/28 01:55:39;;;;;;;;;;;;;;;;;;5035633;28;19940;-67
2023/06/28 01:58:05;;;;;;;;;;;;;;;;;;5035602;28;20010;-65
2023/06/28 02:00:31;;;;;;;;;;;;;;;;;;5035609;28;19978;-67
2023/06/28 02:02:57;;;;;;;;;;;;;;;;;;5035546;28;19939;-65
2023/06/28 02:05:23;;;;;;;;;;;;;;;;;;5035779;28;19939;-67
2023/06/28 02:07:48;;;;;;;;;;;;;;;;;;5035700;28;20020;-65
2023/06/28 02:10:14;;;;;;;;;;;;;;;;;;5035129;28;20049;-65
2023/06/28 02:12:40;;;;;;;;;;;;;;;;;;5035894;28;20295;-64
2023/06/28 02:15:06;;;;;;;;;;;;;;;;;;5035296;28;19938;-67
2023/06/28 02:17:32;;;;;;;;;;;;;;;;;;5035525;28;19961;-67
2023/06/28 02:19:59;;;;;;;;;;;;;;;;;;5035198;28;19945;-65
2023/06/28 02:22:25;;;;;;;;;;;;;;;;;;5035784;28;19939;-67
2023/06/28 02:24:51;;;;;;;;;;;;;;;;;;5035932;28;19945;-66
2023/06/28 02:27:17;;;;;;;;;;;;;;;;;;5035351;28;20380;-68
2023/06/28 02:29:43;;;;;;;;;;;;;;;;;;5034988;28;19960;-65
2023/06/28 02:32:09;;;;;;;;;;;;;;;;;;5033436;28;20467;-65
2023/06/28 02:34:35;;;;;;;;;;;;;;;;;;5035153;28;20050;-66
2023/06/28 02:37:01;;;;;;;;;;;;;;;;;;5034860;28;19988;-67
2023/06/28 02:39:27;;;;;;;;;;;;;;;;;;5034788;28;19935;-65
2023/06/28 02:41:53;;;;;;;;;;;;;;;;;;5034590;28;20025;-67
2023/06/28 02:44:18;;;;;;;;;;;;;;;;;;5035054;28;19983;-65
2023/06/28 02:46:44;;;;;;;;;;;;;;;;;;5034704;28;20351;-66
2023/06/28 02:49:10;;;;;;;;;;;;;;;;;;5034864;28;19947;-65
2023/06/28 02:51:36;;;;;;;;;;;;;;;;;;5034579;28;19962;-66
2023/06/28 02:54:02;;;;;;;;;;;;;;;;;;5035121;28;19937;-64
2023/06/28 02:56:28;;;;;;;;;;;;;;;;;;5034500;28;20372;-66
2023/06/28 02:58:54;;;;;;;;;;;;;;;;;;5034482;28;19941;-67
2023/06/28 03:01:23;;;;;;;;;;;;;;;;;;5034404;28;19930;-66
2023/06/28 03:03:49;;;;;;;;;;;;;;;;;;5034374;28;19934;-66
2023/06/28 03:06:15;;;;;;;;;;;;;;;;;;5034540;28;20422;-66
2023/06/28 03:08:43;;;;;;;;;;;;;;;;;;5034454;28;20046;-65
2023/06/28 03:11:09;;;;;;;;;;;;;;;;;;5034193;28;20435;-67
2023/06/28 03:13:35;;;;;;;;;;;;;;;;;;5034775;28;19951;-66
2023/06/28 03:16:01;;;;;;;;;;;;;;;;;;5034432;28;20002;-67
2023/06/28 03:18:27;;;;;;;;;;;;;;;;;;5034389;28;19945;-66
2023/06/28 03:20:53;;;;;;;;;;;;;;;;;;5033514;28;19950;-66
2023/06/28 03:23:19;;;;;;;;;;;;;;;;;;5034628;28;19986;-65
2023/06/28 03:25:45;;;;;;;;;;;;;;;;;;5034530;28;19947;-67
2023/06/28 03:28:11;;;;;;;;;;;;;;;;;;5033918;28;19958;-67
2023/06/28 03:30:37;;;;;;;;;;;;;;;;;;5033909;28;19946;-66
2023/06/28 03:33:03;;;;;;;;;;;;;;;;;;5034182;28;19942;-65
2023/06/28 03:35:29;;;;;;;;;;;;;;;;;;5034097;28;20064;-68
2023/06/28 03:37:55;;;;;;;;;;;;;;;;;;5034101;28;19997;-67
2023/06/28 03:40:22;;;;;;;;;;;;;;;;;;5033800;28;20046;-64
2023/06/28 03:42:48;;;;;;;;;;;;;;;;;;5033986;28;19987;-67
2023/06/28 03:45:13;;;;;;;;;;;;;;;;;;5033775;28;19951;-66
2023/06/28 03:47:39;;;;;;;;;;;;;;;;;;5033785;28;20008;-66
2023/06/28 03:50:05;;;;;;;;;;;;;;;;;;5033931;28;20383;-65
2023/06/28 03:52:31;;;;;;;;;;;;;;;;;;5033684;28;20412;-67
2023/06/28 03:54:57;;;;;;;;;;;;;;;;;;5034019;28;19952;-69
2023/06/28 03:57:23;;;;;;;;;;;;;;;;;;5033912;28;19951;-65
2023/06/28 03:59:49;;;;;;;;;;;;;;;;;;5033910;28;19956;-68
2023/06/28 04:02:15;;;;;;;;;;;;;;;;;;5034168;28;19957;-67
2023/06/28 04:04:41;;;;;;;;;;;;;;;;;;5033543;28;19957;-67
2023/06/28 04:07:06;;;;;;;;;;;;;;;;;;5033485;28;20422;-66
2023/06/28 04:09:32;;;;;;;;;;;;;;;;;;5033466;28;19965;-67
2023/06/28 04:11:58;;;;;;;;;;;;;;;;;;5033758;28;19991;-66
2023/06/28 04:14:24;;;;;;;;;;;;;;;;;;5033519;28;19983;-67
2023/06/28 04:16:50;;;;;;;;;;;;;;;;;;5033484;28;19952;-65
2023/06/28 04:19:16;;;;;;;;;;;;;;;;;;5033463;28;19955;-68
2023/06/28 04:21:42;;;;;;;;;;;;;;;;;;5033682;28;19948;-67
2023/06/28 04:24:08;;;;;;;;;;;;;;;;;;5033718;28;19957;-67
2023/06/28 04:26:34;;;;;;;;;;;;;;;;;;5033909;28;20042;-66
2023/06/28 04:28:59;;;;;;;;;;;;;;;;;;5033265;28;19970;-67
2023/06/28 04:31:25;;;;;;;;;;;;;;;;;;5033584;28;19961;-65
2023/06/28 04:33:55;;;;;;;;;;;;;;;;;;5035506;28;19962;-64
2023/06/28 04:36:21;;;;;;;;;;;;;;;;;;5037724;28;19955;-65
2023/06/28 04:38:50;;;;;;;;;;;;;;;;;;5037414;28;19961;-64
2023/06/28 04:41:16;;;;;;;;;;;;;;;;;;5035811;28;19962;-67
2023/06/28 04:43:43;;;;;;;;;;;;;;;;;;5036861;28;19996;-65
2023/06/28 04:46:11;;;;;;;;;;;;;;;;;;5036953;28;20035;-65
2023/06/28 04:48:37;;;;;;;;;;;;;;;;;;5037673;28;19974;-68
2023/06/28 04:51:03;;;;;;;;;;;;;;;;;;5036898;28;20000;-63
2023/06/28 04:53:29;;;;;;;;;;;;;;;;;;5036849;28;19976;-66
2023/06/28 04:55:55;;;;;;;;;;;;;;;;;;5037042;28;20033;-67
2023/06/28 04:58:22;;;;;;;;;;;;;;;;;;5036703;28;20031;-67
2023/06/28 05:00:48;;;;;;;;;;;;;;;;;;5036628;28;20007;-67
2023/06/28 05:03:15;;;;;;;;;;;;;;;;;;5036650;28;20041;-66
2023/06/28 05:05:40;;;;;;;;;;;;;;;;;;5037160;28;20050;-65
2023/06/28 05:08:07;;;;;;;;;;;;;;;;;;5036774;28;19982;-67
2023/06/28 05:10:33;;;;;;;;;;;;;;;;;;5036450;28;20313;-65
2023/06/28 05:12:59;;;;;;;;;;;;;;;;;;5037013;28;19959;-65
2023/06/28 05:15:30;;;;;;;;;;;;;;;;;;5036406;28;20033;-67
2023/06/28 05:17:56;;;;;;;;;;;;;;;;;;5036650;28;20016;-66
2023/06/28 05:20:23;;;;;;;;;;;;;;;;;;5036353;28;19953;-69
2023/06/28 05:22:49;;;;;;;;;;;;;;;;;;5034789;28;20026;-67
2023/06/28 05:25:14;;;;;;;;;;;;;;;;;;5037066;28;19955;-66
2023/06/28 05:27:40;;;;;;;;;;;;;;;;;;5036477;28;20009;-66
2023/06/28 05:30:07;;;;;;;;;;;;;;;;;;5036131;28;19974;-66
2023/06/28 05:32:33;;;;;;;;;;;;;;;;;;5036355;28;20022;-65
2023/06/28 05:35:02;;;;;;;;;;;;;;;;;;5036020;28;19971;-66
2023/06/28 05:37:27;;;;;;;;;;;;;;;;;;5035946;28;19965;-66
2023/06/28 05:39:54;;;;;;;;;;;;;;;;;;5036286;28;19955;-67
2023/06/28 05:42:21;;;;;;;;;;;;;;;;;;5034355;28;19998;-68
2023/06/28 05:44:47;;;;;;;;;;;;;;;;;;5035650;28;19960;-65
2023/06/28 05:47:13;;;;;;;;;;;;;;;;;;5035855;28;19955;-65
2023/06/28 05:49:41;;;;;;;;;;;;;;;;;;5036050;28;19973;-64
2023/06/28 05:52:07;;;;;;;;;;;;;;;;;;5035808;28;20443;-66
2023/06/28 05:54:32;;;;;;;;;;;;;;;;;;5036286;28;19980;-67
2023/06/28 05:56:58;;;;;;;;;;;;;;;;;;5036228;28;19955;-67
2023/06/28 05:59:24;;;;;;;;;;;;;;;;;;5035931;28;19992;-64
2023/06/28 06:01:50;;;;;;;;;;;;;;;;;;5035607;28;19962;-67
2023/06/28 06:04:16;;;;;;;;;;;;;;;;;;5035781;28;20051;-69
2023/06/28 06:06:42;;;;;;;;;;;;;;;;;;5035754;28;19991;-66
2023/06/28 06:09:08;;;;;;;;;;;;;;;;;;5035344;28;19974;-67
2023/06/28 06:11:34;;;;;;;;;;;;;;;;;;5035933;28;19961;-66
2023/06/28 06:13:59;;;;;;;;;;;;;;;;;;5035311;28;20093;-67
2023/06/28 06:16:25;;;;;;;;;;;;;;;;;;5035253;28;19961;-65
2023/06/28 06:18:51;;;;;;;;;;;;;;;;;;5035527;28;19955;-67
2023/06/28 06:21:17;;;;;;;;;;;;;;;;;;5035486;28;19966;-65
2023/06/28 06:23:43;;;;;;;;;;;;;;;;;;5035168;28;19990;-67
2023/06/28 06:26:09;;;;;;;;;;;;;;;;;;5035677;28;20478;-65
2023/06/28 06:28:35;;;;;;;;;;;;;;;;;;5034993;28;19974;-66
2023/06/28 06:31:01;;;;;;;;;;;;;;;;;;5035562;28;20341;-68
2023/06/28 06:33:26;;;;;;;;;;;;;;;;;;5035213;28;19958;-68
2023/06/28 06:35:52;;;;;;;;;;;;;;;;;;5034817;28;20401;-69
2023/06/28 06:38:18;;;;;;;;;;;;;;;;;;5034840;28;20005;-64
2023/06/28 06:40:45;;;;;;;;;;;;;;;;;;5035082;28;19953;-66
2023/06/28 06:43:11;;;;;;;;;;;;;;;;;;5034519;28;20437;-66
2023/06/28 06:45:37;;;;;;;;;;;;;;;;;;5034981;28;20005;-64
2023/06/28 06:48:03;;;;;;;;;;;;;;;;;;5034927;28;19957;-66
2023/06/28 06:50:29;;;;;;;;;;;;;;;;;;5035353;28;19990;-65
2023/06/28 06:52:55;;;;;;;;;;;;;;;;;;5034595;28;19953;-67
2023/06/28 06:55:22;;;;;;;;;;;;;;;;;;5033952;28;20033;-65
2023/06/28 06:57:50;;;;;;;;;;;;;;;;;;5033571;28;21401;-63
2023/06/28 07:00:16;;;;;;;;;;;;;;;;;;5034936;28;19959;-67
2023/06/28 07:02:42;;;;;;;;;;;;;;;;;;5034656;28;19998;-65
2023/06/28 07:05:09;;;;;;;;;;;;;;;;;;5034290;28;19965;-69
2023/06/28 07:07:35;;;;;;;;;;;;;;;;;;5034334;28;19983;-66
2023/06/28 07:10:00;;;;;;;;;;;;;;;;;;5034420;28;20395;-67
2023/06/28 07:12:26;;;;;;;;;;;;;;;;;;5034204;28;19966;-66
2023/06/28 07:14:52;;;;;;;;;;;;;;;;;;5034071;28;19951;-67
2023/06/28 07:17:18;;;;;;;;;;;;;;;;;;5033410;28;20416;-63
2023/06/28 07:19:44;;;;;;;;;;;;;;;;;;5032706;28;19991;-64
2023/06/28 07:22:11;;;;;;;;;;;;;;;;;;5033163;28;20007;-67
2023/06/28 07:24:37;;;;;;;;;;;;;;;;;;5033324;28;19972;-67
2023/06/28 07:27:02;;;;;;;;;;;;;;;;;;5033559;28;19953;-64
2023/06/28 07:29:28;;;;;;;;;;;;;;;;;;5032938;28;20321;-68
2023/06/28 07:31:54;;;;;;;;;;;;;;;;;;5033221;28;19962;-64
2023/06/28 07:34:21;;;;;;;;;;;;;;;;;;5033357;28;20339;-67
2023/06/28 07:36:47;;;;;;;;;;;;;;;;;;5033900;28;19960;-68
2023/06/28 07:39:13;;;;;;;;;;;;;;;;;;5034154;28;19954;-64
2023/06/28 07:41:39;;;;;;;;;;;;;;;;;;5033814;28;19978;-66
2023/06/28 07:44:05;;;;;;;;;;;;;;;;;;5033390;28;19990;-65
2023/06/28 07:46:31;;;;;;;;;;;;;;;;;;5033788;28;19955;-64
2023/06/28 07:48:59;;;;;;;;;;;;;;;;;;5034264;28;20022;-63
2023/06/28 07:51:25;;;;;;;;;;;;;;;;;;5033986;28;19962;-64
2023/06/28 07:53:51;;;;;;;;;;;;;;;;;;5033965;28;20332;-64
2023/06/28 07:56:17;;;;;;;;;;;;;;;;;;5033687;28;19997;-64
2023/06/28 07:58:43;;;;;;;;;;;;;;;;;;5032625;28;19966;-64
2023/06/28 08:01:09;;;;;;;;;;;;;;;;;;5033889;28;19953;-63
2023/06/28 08:03:35;;;;;;;;;;;;;;;;;;5033889;28;19960;-64
2023/06/28 08:06:01;;;;;;;;;;;;;;;;;;5033775;28;20009;-64
2023/06/28 08:08:27;;;;;;;;;;;;;;;;;;5036870;28;19955;-64
2023/06/28 08:10:53;;;;;;;;;;;;;;;;;;5037927;28;19961;-64
2023/06/28 08:13:19;;;;;;;;;;;;;;;;;;5037901;28;20397;-64
2023/06/28 08:15:45;;;;;;;;;;;;;;;;;;5038143;28;19955;-64
2023/06/28 08:18:12;;;;;;;;;;;;;;;;;;5037520;28;20045;-65
2023/06/28 08:20:38;;;;;;;;;;;;;;;;;;5037527;28;19954;-67
2023/06/28 08:23:04;;;;;;;;;;;;;;;;;;5037461;28;19954;-64
2023/06/28 08:25:30;;;;;;;;;;;;;;;;;;5037892;28;19953;-65
2023/06/28 08:27:56;;;;;;;;;;;;;;;;;;5037348;28;20402;-65
2023/06/28 08:30:21;;;;;;;;;;;;;;;;;;5037219;28;20006;-63
2023/06/28 08:32:47;;;;;;;;;;;;;;;;;;5037521;28;19955;-64
2023/06/28 08:35:13;;;;;;;;;;;;;;;;;;5037078;28;20068;-64
2023/06/28 08:37:39;;;;;;;;;;;;;;;;;;5037705;28;20386;-64
2023/06/28 08:40:06;;;;;;;;;;;;;;;;;;5037444;28;19961;-65
2023/06/28 08:42:32;;;;;;;;;;;;;;;;;;5037182;28;19988;-64
2023/06/28 08:44:58;;;;;;;;;;;;;;;;;;5037024;28;20005;-65
2023/06/28 08:47:24;;;;;;;;;;;;;;;;;;5037273;28;20415;-64
2023/06/28 08:49:50;;;;;;;;;;;;;;;;;;5037408;28;20023;-63
2023/06/28 08:52:16;;;;;;;;;;;;;;;;;;5035614;28;19969;-64
2023/06/28 08:54:42;;;;;;;;;;;;;;;;;;5037370;28;20009;-63
2023/06/28 08:57:08;;;;;;;;;;;;;;;;;;5036774;28;20019;-63
2023/06/28 08:59:33;;;;;;;;;;;;;;;;;;5036780;28;20047;-62
2023/06/28 09:02:01;;;;;;;;;;;;;;;;;;5036960;28;19959;-64
2023/06/28 09:04:26;;;;;;;;;;;;;;;;;;5036610;28;20410;-65
2023/06/28 09:06:52;;;;;;;;;;;;;;;;;;5037168;28;20050;-64
2023/06/28 09:09:18;;;;;;;;;;;;;;;;;;5036494;28;19976;-65
2023/06/28 09:11:44;;;;;;;;;;;;;;;;;;5036523;28;19963;-64
2023/06/28 09:14:10;;;;;;;;;;;;;;;;;;5036761;28;19960;-64
2023/06/28 09:16:36;;;;;;;;;;;;;;;;;;5036429;28;19959;-63
2023/06/28 09:19:02;;;;;;;;;;;;;;;;;;5036005;28;19955;-63
2023/06/28 09:21:28;;;;;;;;;;;;;;;;;;5036346;28;20005;-63
2023/06/28 09:23:54;;;;;;;;;;;;;;;;;;5037093;28;20429;-64
2023/06/28 09:26:20;;;;;;;;;;;;;;;;;;5036829;28;20005;-64
2023/06/28 09:28:46;;;;;;;;;;;;;;;;;;5036155;28;19999;-64
2023/06/28 09:31:11;;;;;;;;;;;;;;;;;;5036476;28;19961;-64
2023/06/28 09:33:37;;;;;;;;;;;;;;;;;;5036116;28;20018;-65
2023/06/28 09:36:03;;;;;;;;;;;;;;;;;;5035994;28;19978;-65
2023/06/28 09:38:29;;;;;;;;;;;;;;;;;;5036344;28;20065;-64
2023/06/28 09:40:55;;;;;;;;;;;;;;;;;;5036021;28;19956;-64
2023/06/28 09:43:21;;;;;;;;;;;;;;;;;;5035879;28;19988;-64
2023/06/28 09:45:47;;;;;;;;;;;;;;;;;;5035950;28;19959;-65
2023/06/28 09:48:13;;;;;;;;;;;;;;;;;;5036423;28;20293;-63
2023/06/28 09:50:39;;;;;;;;;;;;;;;;;;5036068;28;19959;-65
2023/06/28 09:53:04;;;;;;;;;;;;;;;;;;5035831;28;20418;-63
2023/06/28 09:55:30;;;;;;;;;;;;;;;;;;5035718;28;19993;-65
2023/06/28 09:57:56;;;;;;;;;;;;;;;;;;5036214;28;20420;-63
2023/06/28 10:00:23;;;;;;;;;;;;;;;;;;5035951;28;20052;-63
2023/06/28 10:02:48;;;;;;;;;;;;;;;;;;5035555;28;19989;-64
2023/06/28 10:05:14;;;;;;;;;;;;;;;;;;5034243;28;19966;-64
2023/06/28 10:07:40;;;;;;;;;;;;;;;;;;5035531;28;20048;-64
2023/06/28 10:10:07;;;;;;;;;;;;;;;;;;5035637;28;20004;-62
2023/06/28 10:12:33;;;;;;;;;;;;;;;;;;5035672;28;20024;-64
2023/06/28 10:14:59;;;;;;;;;;;;;;;;;;5035889;28;20398;-64
2023/06/28 10:17:25;;;;;;;;;;;;;;;;;;5035617;28;19996;-65
2023/06/28 10:19:51;;;;;;;;;;;;;;;;;;5035303;28;20328;-64
2023/06/28 10:22:17;;;;;;;;;;;;;;;;;;5035789;28;20418;-64
2023/06/28 10:24:43;;;;;;;;;;;;;;;;;;5035448;28;19960;-64
2023/06/28 10:27:09;;;;;;;;;;;;;;;;;;5035908;28;19958;-64
2023/06/28 10:29:35;;;;;;;;;;;;;;;;;;5034876;28;20076;-65
2023/06/28 10:32:00;;;;;;;;;;;;;;;;;;5035228;28;19959;-63
2023/06/28 10:34:26;;;;;;;;;;;;;;;;;;5035104;28;19974;-64
2023/06/28 10:36:52;;;;;;;;;;;;;;;;;;5035466;28;19958;-63
2023/06/28 10:39:18;;;;;;;;;;;;;;;;;;5035138;28;20054;-64
2023/06/28 10:41:44;;;;;;;;;;;;;;;;;;5035103;28;19962;-63
2023/06/28 10:44:10;;;;;;;;;;;;;;;;;;5034618;28;19992;-63
2023/06/28 10:46:36;;;;;;;;;;;;;;;;;;5035040;28;20019;-64
2023/06/28 10:49:03;;;;;;;;;;;;;;;;;;5034838;28;20414;-64
2023/06/28 10:51:29;;;;;;;;;;;;;;;;;;5035189;28;20401;-65
2023/06/28 10:53:56;;;;;;;;;;;;;;;;;;5034642;28;19961;-65
2023/06/28 10:56:22;;;;;;;;;;;;;;;;;;5034817;28;19952;-63
2023/06/28 10:58:47;;;;;;;;;;;;;;;;;;5034488;28;20050;-65
2023/06/28 11:01:13;;;;;;;;;;;;;;;;;;5034493;28;19962;-64
2023/06/28 11:03:39;;;;;;;;;;;;;;;;;;5034476;28;19955;-64
2023/06/28 11:06:05;;;;;;;;;;;;;;;;;;5033077;28;19959;-64
2023/06/28 11:08:31;;;;;;;;;;;;;;;;;;5034854;28;19958;-65
2023/06/28 11:11:00;;;;;;;;;;;;;;;;;;5034344;28;20006;-65
2023/06/28 11:13:26;;;;;;;;;;;;;;;;;;5034262;28;20432;-65
2023/06/28 11:15:52;;;;;;;;;;;;;;;;;;5034787;28;19962;-65
2023/06/28 11:18:20;;;;;;;;;;;;;;;;;;5034190;28;20010;-65
2023/06/28 11:20:47;;;;;;;;;;;;;;;;;;5034674;28;19958;-64
2023/06/28 11:23:12;;;;;;;;;;;;;;;;;;5034351;28;20046;-63
2023/06/28 11:25:38;;;;;;;;;;;;;;;;;;5034078;28;19995;-64
2023/06/28 11:28:04;;;;;;;;;;;;;;;;;;5034836;28;20407;-65
2023/06/28 11:30:30;;;;;;;;;;;;;;;;;;5033912;28;19979;-64
2023/06/28 11:32:56;;;;;;;;;;;;;;;;;;5034257;28;19966;-64
2023/06/28 11:35:22;;;;;;;;;;;;;;;;;;5033895;28;19976;-64
2023/06/28 11:37:48;;;;;;;;;;;;;;;;;;5033883;28;19962;-64
2023/06/28 11:40:14;;;;;;;;;;;;;;;;;;5033887;28;19954;-64
2023/06/28 11:42:40;;;;;;;;;;;;;;;;;;5033529;28;20471;-64
2023/06/28 11:45:05;;;;;;;;;;;;;;;;;;5033808;28;20010;-65
2023/06/28 11:47:32;;;;;;;;;;;;;;;;;;5034341;28;20404;-64
2023/06/28 11:49:57;;;;;;;;;;;;;;;;;;5033970;28;20012;-64
2023/06/28 11:52:23;;;;;;;;;;;;;;;;;;5033737;28;19962;-65
2023/06/28 11:54:49;;;;;;;;;;;;;;;;;;5033948;28;19962;-64
2023/06/28 11:57:15;;;;;;;;;;;;;;;;;;5033670;28;19956;-65
2023/06/28 11:59:44;;;;;;;;;;;;;;;;;;5034164;28;19962;-64
2023/06/28 12:02:10;;;;;;;;;;;;;;;;;;5033863;28;20012;-64
2023/06/28 12:04:36;;;;;;;;;;;;;;;;;;5033664;28;19958;-64
2023/06/28 12:07:04;;;;;;;;;;;;;;;;;;5033562;28;19954;-64
2023/06/28 12:09:31;;;;;;;;;;;;;;;;;;5033537;28;19983;-63
2023/06/28 12:11:58;;;;;;;;;;;;;;;;;;5032056;28;19962;-64
2023/06/28 12:14:23;;;;;;;;;;;;;;;;;;5033675;28;19966;-64
2023/06/28 12:16:50;;;;;;;;;;;;;;;;;;5033470;28;19958;-64
2023/06/28 12:19:16;;;;;;;;;;;;;;;;;;5033770;28;19966;-64
2023/06/28 12:21:42;;;;;;;;;;;;;;;;;;5033356;28;19966;-64
2023/06/28 12:24:08;;;;;;;;;;;;;;;;;;5033406;28;19960;-64
2023/06/28 12:26:34;;;;;;;;;;;;;;;;;;5034189;28;19955;-64
2023/06/28 12:29:00;;;;;;;;;;;;;;;;;;5033253;28;20053;-65
2023/06/28 12:31:27;;;;;;;;;;;;;;;;;;5033356;28;19960;-64
2023/06/28 12:33:53;;;;;;;;;;;;;;;;;;5033513;28;20005;-64
2023/06/28 12:36:19;;;;;;;;;;;;;;;;;;5033312;28;19963;-65
2023/06/28 12:38:45;;;;;;;;;;;;;;;;;;5033871;28;20347;-64
2023/06/28 12:41:11;;;;;;;;;;;;;;;;;;5033498;28;19960;-64
2023/06/28 12:43:37;;;;;;;;;;;;;;;;;;5032886;28;20001;-65
2023/06/28 12:46:03;;;;;;;;;;;;;;;;;;5033283;28;19955;-64
2023/06/28 12:48:29;;;;;;;;;;;;;;;;;;5033385;28;19959;-65
2023/06/28 12:50:55;;;;;;;;;;;;;;;;;;5033193;28;19953;-64
2023/06/28 12:53:21;;;;;;;;;;;;;;;;;;5031956;28;20064;-65
2023/06/28 12:55:47;;;;;;;;;;;;;;;;;;5036844;28;19955;-63
2023/06/28 12:58:13;;;;;;;;;;;;;;;;;;5037097;28;20416;-63
2023/06/28 13:00:44;;;;;;;;;;;;;;;;;;5036840;28;19984;-64
2023/06/28 13:03:11;;;;;;;;;;;;;;;;;;5037032;28;20415;-64
2023/06/28 13:05:36;;;;;;;;;;;;;;;;;;5036658;28;20327;-64
2023/06/28 13:08:03;;;;;;;;;;;;;;;;;;5037176;28;19976;-64
2023/06/28 13:10:29;;;;;;;;;;;;;;;;;;5035251;28;20355;-64
2023/06/28 13:12:55;;;;;;;;;;;;;;;;;;5037103;28;19955;-63
2023/06/28 13:15:20;;;;;;;;;;;;;;;;;;5036773;28;20034;-64
2023/06/28 13:17:46;;;;;;;;;;;;;;;;;;5036739;28;19965;-64
2023/06/28 13:20:12;;;;;;;;;;;;;;;;;;5036335;28;19954;-63
2023/06/28 13:22:38;;;;;;;;;;;;;;;;;;5036571;28;20409;-64
2023/06/28 13:25:04;;;;;;;;;;;;;;;;;;5036353;28;19955;-65
2023/06/28 13:27:30;;;;;;;;;;;;;;;;;;5037332;28;19961;-64
2023/06/28 13:29:56;;;;;;;;;;;;;;;;;;5036150;28;20041;-65
2023/06/28 13:32:22;;;;;;;;;;;;;;;;;;5036192;28;19956;-64
2023/06/28 13:34:48;;;;;;;;;;;;;;;;;;5036674;28;19975;-64
2023/06/28 13:37:13;;;;;;;;;;;;;;;;;;5036133;28;19955;-64
2023/06/28 13:39:40;;;;;;;;;;;;;;;;;;5036429;28;19952;-64
2023/06/28 13:42:06;;;;;;;;;;;;;;;;;;5035859;28;20063;-65
2023/06/28 13:44:32;;;;;;;;;;;;;;;;;;5036284;28;20407;-65
2023/06/28 13:46:58;;;;;;;;;;;;;;;;;;5035913;28;19954;-64
2023/06/28 13:49:24;;;;;;;;;;;;;;;;;;5036062;28;19997;-64
2023/06/28 13:51:50;;;;;;;;;;;;;;;;;;5035840;28;19954;-65
2023/06/28 13:54:16;;;;;;;;;;;;;;;;;;5036074;28;19955;-63
2023/06/28 13:56:42;;;;;;;;;;;;;;;;;;5036015;28;20035;-65
2023/06/28 13:59:07;;;;;;;;;;;;;;;;;;5035696;28;19962;-64
2023/06/28 14:01:34;;;;;;;;;;;;;;;;;;5035916;28;20079;-65
2023/06/28 14:04:00;;;;;;;;;;;;;;;;;;5035884;28;20012;-65
2023/06/28 14:06:26;;;;;;;;;;;;;;;;;;5035388;28;19955;-64
2023/06/28 14:08:52;;;;;;;;;;;;;;;;;;5035433;28;20044;-63
2023/06/28 14:11:18;;;;;;;;;;;;;;;;;;5035483;28;20443;-65
2023/06/28 14:13:43;;;;;;;;;;;;;;;;;;5035761;28;20005;-64
2023/06/28 14:16:09;;;;;;;;;;;;;;;;;;5035342;28;20402;-64
2023/06/28 14:18:35;;;;;;;;;;;;;;;;;;5035385;28;19955;-64
2023/06/28 14:21:01;;;;;;;;;;;;;;;;;;5035536;28;19955;-64
2023/06/28 14:23:27;;;;;;;;;;;;;;;;;;5035235;28;20423;-65
2023/06/28 14:25:53;;;;;;;;;;;;;;;;;;5035190;28;19961;-63
2023/06/28 14:28:20;;;;;;;;;;;;;;;;;;5035666;28;20405;-63
2023/06/28 14:30:46;;;;;;;;;;;;;;;;;;5034980;28;20431;-64
2023/06/28 14:33:12;;;;;;;;;;;;;;;;;;5035028;28;19954;-65
2023/06/28 14:35:38;;;;;;;;;;;;;;;;;;5034905;28;20068;-64
2023/06/28 14:38:05;;;;;;;;;;;;;;;;;;5034967;28;19954;-63
2023/06/28 14:40:31;;;;;;;;;;;;;;;;;;5033647;28;19992;-63
2023/06/28 14:42:57;;;;;;;;;;;;;;;;;;5034779;28;20034;-64
2023/06/28 14:45:22;;;;;;;;;;;;;;;;;;5035365;28;19962;-64
2023/06/28 14:47:48;;;;;;;;;;;;;;;;;;5035083;28;19955;-64
2023/06/28 14:50:14;;;;;;;;;;;;;;;;;;5034624;28;19975;-65
2023/06/28 14:52:40;;;;;;;;;;;;;;;;;;5034726;28;20009;-63
2023/06/28 14:55:06;;;;;;;;;;;;;;;;;;5034969;28;19978;-65
2023/06/28 14:57:32;;;;;;;;;;;;;;;;;;5034566;28;20042;-63
2023/06/28 14:59:58;;;;;;;;;;;;;;;;;;5034572;28;19953;-65
2023/06/28 15:02:24;;;;;;;;;;;;;;;;;;5034507;28;19962;-64
2023/06/28 15:04:53;;;;;;;;;;;;;;;;;;5034693;28;19959;-64
2023/06/28 15:07:19;;;;;;;;;;;;;;;;;;5034703;28;19952;-65
2023/06/28 15:09:46;;;;;;;;;;;;;;;;;;5034867;28;19972;-64
2023/06/28 15:12:11;;;;;;;;;;;;;;;;;;5032780;28;19959;-65
2023/06/28 15:14:38;;;;;;;;;;;;;;;;;;5034582;28;19976;-65
2023/06/28 15:17:03;;;;;;;;;;;;;;;;;;5033765;28;19965;-65
2023/06/28 15:19:29;;;;;;;;;;;;;;;;;;5034506;28;20040;-64
2023/06/28 15:21:55;;;;;;;;;;;;;;;;;;5034152;28;19955;-64
2023/06/28 15:24:21;;;;;;;;;;;;;;;;;;5034399;28;19952;-64
2023/06/28 15:26:48;;;;;;;;;;;;;;;;;;5034905;28;19966;-64
2023/06/28 15:29:14;;;;;;;;;;;;;;;;;;5034235;28;20082;-64
2023/06/28 15:31:40;;;;;;;;;;;;;;;;;;5033975;28;19960;-65
2023/06/28 15:34:06;;;;;;;;;;;;;;;;;;5033899;28;20069;-65
2023/06/28 15:36:32;;;;;;;;;;;;;;;;;;5033991;28;19956;-65
2023/06/28 15:38:58;;;;;;;;;;;;;;;;;;5034182;28;19962;-65
2023/06/28 15:41:24;;;;;;;;;;;;;;;;;;5033906;28;19955;-64
2023/06/28 15:43:50;;;;;;;;;;;;;;;;;;5033449;28;19997;-63
2023/06/28 15:46:16;;;;;;;;;;;;;;;;;;5033843;28;19961;-65
2023/06/28 15:48:42;;;;;;;;;;;;;;;;;;5033650;28;19955;-64
2023/06/28 15:51:07;;;;;;;;;;;;;;;;;;5034030;28;20050;-65
2023/06/28 15:53:33;;;;;;;;;;;;;;;;;;5033707;28;19953;-63
2023/06/28 15:55:59;;;;;;;;;;;;;;;;;;5033999;28;19962;-64
2023/06/28 15:58:26;;;;;;;;;;;;;;;;;;5033690;28;19955;-65
2023/06/28 16:00:56;;;;;;;;;;;;;;;;;;5033689;28;19963;-65
2023/06/28 16:03:22;;;;;;;;;;;;;;;;;;5033651;28;19977;-65
2023/06/28 16:05:48;;;;;;;;;;;;;;;;;;5033612;28;20411;-64
2023/06/28 16:08:13;;;;;;;;;;;;;;;;;;5033604;28;19990;-65
2023/06/28 16:10:40;;;;;;;;;;;;;;;;;;5033533;28;19976;-65
2023/06/28 16:13:08;;;;;;;;;;;;;;;;;;5032007;28;20049;-63
2023/06/28 16:15:34;;;;;;;;;;;;;;;;;;5033807;28;19955;-64
2023/06/28 16:18:00;;;;;;;;;;;;;;;;;;5032212;28;19966;-65
2023/06/28 16:20:25;;;;;;;;;;;;;;;;;;5033446;28;19955;-65
2023/06/28 16:22:52;;;;;;;;;;;;;;;;;;5031950;28;19959;-65
2023/06/28 16:25:18;;;;;;;;;;;;;;;;;;5033416;28;19959;-65
2023/06/28 16:27:44;;;;;;;;;;;;;;;;;;5034106;28;19957;-65
2023/06/28 16:30:10;;;;;;;;;;;;;;;;;;5037283;28;19975;-65
2023/06/28 16:32:35;;;;;;;;;;;;;;;;;;5037663;28;19957;-64
2023/06/28 16:35:02;;;;;;;;;;;;;;;;;;5037228;28;20376;-64
2023/06/28 16:37:27;;;;;;;;;;;;;;;;;;5037498;28;19958;-64